Time;durP1;ratioP1;P1;durP2;ratioP2;P2;SDS_P1;SDS_P2;PMS_P1;PMS_P2;Temp;Humidity;BMP_temperature;BMP_pressure;BME280_temperature;BME280_humidity;BME280_pressure;Samples;Min_cycle;Max_cycle;Signal;HPM_P1;HPM_P2
2021/05/11 00:00:07;;;;;;;10.25;3.90;;;13.20;52.10;;;;;;5045870;28;20033;-60
2021/05/11 00:02:33;;;;;;;6.78;3.45;;;13.20;52.10;;;;;;5045272;28;20497;-60
2021/05/11 00:04:59;;;;;;;6.10;2.60;;;13.10;52.00;;;;;;5045905;28;20032;-59
2021/05/11 00:07:25;;;;;;;8.77;2.70;;;13.10;52.10;;;;;;5045365;28;20048;-59
2021/05/11 00:09:51;;;;;;;9.27;2.83;;;13.10;52.20;;;;;;5027972;28;20059;-60
2021/05/11 00:12:17;;;;;;;6.65;3.03;;;13.10;52.20;;;;;;5045835;28;20126;-59
2021/05/11 00:14:43;;;;;;;12.57;3.05;;;13.00;52.10;;;;;;5044940;28;20036;-59
2021/05/11 00:17:09;;;;;;;6.40;2.72;;;13.00;52.20;;;;;;5045695;28;20029;-60
2021/05/11 00:19:36;;;;;;;8.07;3.13;;;13.00;52.30;;;;;;5045159;28;20124;-60
2021/05/11 00:22:02;;;;;;;9.52;3.15;;;13.00;52.40;;;;;;5045148;28;20288;-60
2021/05/11 00:24:28;;;;;;;4.07;2.70;;;13.00;52.40;;;;;;5045634;28;20056;-60
2021/05/11 00:26:54;;;;;;;6.63;2.90;;;13.00;52.40;;;;;;5045640;28;20377;-60
2021/05/11 00:29:20;;;;;;;6.80;3.00;;;12.90;52.30;;;;;;5045529;28;20067;-60
2021/05/11 00:31:46;;;;;;;7.63;3.10;;;12.90;52.40;;;;;;5045126;28;20537;-60
2021/05/11 00:34:12;;;;;;;10.68;3.65;;;12.90;52.40;;;;;;5045421;28;20611;-60
2021/05/11 00:36:38;;;;;;;8.52;3.40;;;12.90;52.50;;;;;;5027388;28;20319;-60
2021/05/11 00:39:04;;;;;;;9.70;2.95;;;12.90;52.60;;;;;;5045368;28;20431;-60
2021/05/11 00:41:30;;;;;;;8.80;3.63;;;12.90;52.60;;;;;;5045352;28;20028;-59
2021/05/11 00:43:56;;;;;;;9.88;3.20;;;12.80;52.50;;;;;;5045228;28;20032;-60
2021/05/11 00:46:22;;;;;;;9.50;3.10;;;12.80;52.50;;;;;;5045275;28;20407;-60
2021/05/11 00:48:48;;;;;;;7.40;3.08;;;12.80;52.60;;;;;;5027476;28;20112;-60
2021/05/11 00:51:15;;;;;;;7.72;3.15;;;12.80;52.70;;;;;;5045831;28;20139;-60
2021/05/11 00:53:42;;;;;;;8.55;3.22;;;12.80;52.70;;;;;;5045117;28;20021;-60
2021/05/11 00:56:10;;;;;;;7.07;3.10;;;12.70;52.70;;;;;;5044054;28;20025;-60
2021/05/11 00:58:37;;;;;;;7.20;3.20;;;12.70;52.70;;;;;;5045167;28;20270;-60
2021/05/11 01:01:04;;;;;;;7.53;3.05;;;12.70;52.70;;;;;;5048111;28;20033;-60
2021/05/11 01:03:30;;;;;;;6.18;2.67;;;12.70;52.80;;;;;;5048816;28;20060;-59
2021/05/11 01:05:56;;;;;;;9.95;3.22;;;12.70;52.80;;;;;;5048965;28;20032;-60
2021/05/11 01:08:22;;;;;;;10.90;3.70;;;12.60;52.70;;;;;;5048989;28;20036;-59
2021/05/11 01:10:48;;;;;;;5.93;2.63;;;12.60;52.80;;;;;;5048658;28;20407;-60
2021/05/11 01:13:14;;;;;;;9.18;3.67;;;12.60;52.80;;;;;;5048852;28;20025;-60
2021/05/11 01:15:42;;;;;;;6.10;3.17;;;12.60;52.90;;;;;;5048691;28;20471;-60
2021/05/11 01:18:13;;;;;;;6.93;2.72;;;12.50;52.80;;;;;;5048519;28;20036;-60
2021/05/11 01:20:42;;;;;;;13.77;2.78;;;12.50;52.80;;;;;;5030887;28;20045;-59
2021/05/11 01:25:48;;;;;;;7.60;2.63;;;12.50;52.90;;;;;;5048375;28;20036;-58
2021/05/11 01:28:27;;;;;;;7.85;3.33;;;12.50;52.90;;;;;;5048286;28;20032;-59
2021/05/11 01:47:06;;;;;;;7.10;2.50;;;12.30;52.80;;;;;;5052419;22;20049;-78
2021/05/11 01:52:22;;;;;;;6.15;3.25;;;12.30;53.00;;;;;;5051299;28;20021;-78
2021/05/11 01:55:07;;;;;;;8.02;2.70;;;12.20;52.80;;;;;;5050186;28;20033;-77
2021/05/11 02:24:42;;;;;;;8.32;2.80;;;12.10;52.90;;;;;;5051911;28;20029;-77
2021/05/11 02:27:08;;;;;;;9.57;2.80;;;12.10;53.00;;;;;;5051497;28;20459;-79
2021/05/11 02:29:34;;;;;;;7.03;2.80;;;12.10;53.10;;;;;;5034424;28;20025;-79
2021/05/11 02:32:00;;;;;;;6.93;2.42;;;12.10;53.10;;;;;;5018438;28;20060;-79
2021/05/11 02:34:26;;;;;;;12.75;3.67;;;12.00;53.00;;;;;;5052841;28;20025;-79
2021/05/11 02:36:51;;;;;;;6.30;3.42;;;12.00;53.10;;;;;;5034701;28;20499;-78
2021/05/11 02:39:17;;;;;;;6.38;2.70;;;12.00;53.10;;;;;;5052499;28;20032;-78
2021/05/11 02:41:45;;;;;;;7.93;2.58;;;12.00;53.20;;;;;;5052381;28;20044;-78
2021/05/11 02:44:11;;;;;;;7.47;3.38;;;11.90;53.10;;;;;;5052584;28;20108;-79
2021/05/11 02:46:37;;;;;;;5.43;2.65;;;11.90;53.10;;;;;;5052376;28;20049;-78
2021/05/11 02:49:03;;;;;;;10.45;2.92;;;11.90;53.10;;;;;;5034260;28;20040;-78
2021/05/11 02:51:29;;;;;;;6.35;2.92;;;11.90;53.20;;;;;;5052033;28;20040;-79
2021/05/11 02:53:55;;;;;;;9.00;3.13;;;11.80;53.10;;;;;;5052239;28;20416;-79
2021/05/11 02:56:21;;;;;;;5.10;2.78;;;11.90;53.30;;;;;;5052416;28;20033;-80
2021/05/11 02:58:49;;;;;;;6.82;2.92;;;11.90;53.30;;;;;;5052312;28;20021;-78
2021/05/11 03:01:15;;;;;;;4.80;2.65;;;11.80;53.20;;;;;;5052241;28;20061;-78
2021/05/11 03:03:41;;;;;;;7.50;2.70;;;11.80;53.30;;;;;;5052137;28;20052;-80
2021/05/11 03:06:07;;;;;;;7.75;3.05;;;11.80;53.30;;;;;;5017786;28;20475;-79
2021/05/11 03:08:33;;;;;;;7.90;2.70;;;11.80;53.40;;;;;;5051756;28;20037;-79
2021/05/11 03:10:59;;;;;;;10.05;2.85;;;11.70;53.20;;;;;;5051819;28;20025;-79
2021/05/11 03:13:25;;;;;;;8.52;3.15;;;11.70;53.30;;;;;;5051944;28;20115;-78
2021/05/11 03:15:51;;;;;;;5.32;2.10;;;11.70;53.30;;;;;;5051796;28;20113;-78
2021/05/11 03:18:18;;;;;;;5.18;2.63;;;11.70;53.40;;;;;;5051878;28;20130;-78
2021/05/11 03:20:44;;;;;;;3.92;2.45;;;11.60;53.20;;;;;;5051673;28;20037;-78
2021/05/11 03:23:10;;;;;;;5.70;2.67;;;11.60;53.20;;;;;;5050910;28;20537;-78
2021/05/11 03:25:36;;;;;;;4.57;2.50;;;11.60;53.30;;;;;;5051578;28;20032;-78
2021/05/11 03:28:02;;;;;;;6.68;2.88;;;11.60;53.30;;;;;;5033676;28;20094;-79
2021/05/11 03:30:28;;;;;;;5.55;2.22;;;11.60;53.40;;;;;;5033911;28;20396;-78
2021/05/11 03:32:54;;;;;;;7.47;2.75;;;11.50;53.30;;;;;;5051836;28;20036;-78
2021/05/11 03:35:20;;;;;;;5.07;2.42;;;11.50;53.40;;;;;;5017347;28;20029;-78
2021/05/11 03:37:46;;;;;;;5.93;2.40;;;11.50;53.40;;;;;;5033871;28;20396;-79
2021/05/11 03:40:12;;;;;;;5.05;2.95;;;11.50;53.40;;;;;;5051458;28;20561;-78
2021/05/11 03:42:47;;;;;;;5.82;2.38;;;11.50;53.50;;;;;;5033664;28;20047;-78
2021/05/11 03:45:16;;;;;;;7.28;2.88;;;11.40;53.30;;;;;;5050197;28;20028;-78
2021/05/11 03:47:44;;;;;;;5.28;2.08;;;11.40;53.30;;;;;;5016814;28;20044;-78
2021/05/11 03:50:15;;;;;;;6.03;2.42;;;11.40;53.40;;;;;;5033362;28;20036;-78
2021/05/11 03:52:42;;;;;;;7.75;2.72;;;11.40;53.40;;;;;;5051370;28;20494;-79
2021/05/11 03:55:09;;;;;;;8.93;2.88;;;11.40;53.50;;;;;;5051136;28;20495;-77
2021/05/11 03:57:35;;;;;;;6.63;2.80;;;11.30;53.40;;;;;;5051194;28;20032;-78
2021/05/11 04:00:00;;;;;;;5.57;2.58;;;11.30;53.40;;;;;;5033111;28;20033;-78
2021/05/11 04:02:26;;;;;;;8.88;3.03;;;11.30;53.40;;;;;;5051399;28;20036;-78
2021/05/11 04:04:52;;;;;;;5.50;2.53;;;11.20;53.20;;;;;;5033300;28;20029;-78
2021/05/11 04:07:18;;;;;;;7.70;3.10;;;11.20;53.20;;;;;;5051124;28;20045;-77
2021/05/11 04:09:48;;;;;;;8.40;2.47;;;11.20;53.30;;;;;;5033286;28;20124;-77
2021/05/11 04:17:44;;;;;;;7.75;2.90;;;11.20;53.40;;;;;;5049327;28;20031;-77
2021/05/11 04:20:12;;;;;;;4.75;2.67;;;11.20;53.40;;;;;;5016593;28;20170;-78
2021/05/11 04:22:38;;;;;;;9.77;2.97;;;11.20;53.50;;;;;;5051271;28;20083;-78
2021/05/11 04:25:05;;;;;;;5.43;2.30;;;11.10;53.30;;;;;;5050940;28;20479;-79
2021/05/11 04:27:31;;;;;;;3.65;2.22;;;11.10;53.30;;;;;;5050638;28;20132;-78
2021/05/11 04:30:00;;;;;;;7.22;2.97;;;11.10;53.40;;;;;;5016976;28;20064;-80
2021/05/11 04:32:27;;;;;;;7.18;2.92;;;11.10;53.40;;;;;;5032218;28;20071;-78
2021/05/11 04:34:52;;;;;;;4.85;2.50;;;11.10;53.50;;;;;;5017832;28;20032;-78
2021/05/11 04:37:19;;;;;;;7.88;2.92;;;11.10;53.50;;;;;;5036867;28;20036;-77
2021/05/11 04:39:45;;;;;;;7.50;2.75;;;11.00;53.30;;;;;;5037063;28;20036;-78
2021/05/11 04:42:11;;;;;;;4.88;3.00;;;11.00;53.40;;;;;;5054612;28;20033;-78
2021/05/11 04:44:38;;;;;;;5.80;2.70;;;11.00;53.40;;;;;;5053693;28;20465;-78
2021/05/11 04:47:17;;;;;;;7.93;3.20;;;11.00;53.40;;;;;;5052392;28;20522;-78
2021/05/11 04:49:43;;;;;;;4.85;2.58;;;11.00;53.50;;;;;;5031359;28;20378;-79
2021/05/11 04:52:09;;;;;;;6.30;2.80;;;11.00;53.50;;;;;;4996864;28;20026;-78
2021/05/11 04:54:36;;;;;;;6.53;2.67;;;11.00;53.50;;;;;;5031833;28;20034;-78
2021/05/11 04:57:02;;;;;;;8.35;2.97;;;11.00;53.50;;;;;;5030234;28;20057;-78
2021/05/11 04:59:28;;;;;;;4.10;2.47;;;11.00;53.50;;;;;;5031174;28;20028;-78
2021/05/11 05:01:56;;;;;;;4.85;2.17;;;11.00;53.50;;;;;;5032524;28;20041;-77
2021/05/11 05:04:22;;;;;;;8.68;3.20;;;11.00;53.50;;;;;;5011790;28;20025;-77
2021/05/11 05:06:48;;;;;;;4.43;2.45;;;11.00;53.50;;;;;;4995431;28;20073;-77
2021/05/11 05:09:14;;;;;;;6.40;3.03;;;11.00;53.50;;;;;;5010394;28;20376;-78
2021/05/11 05:11:41;;;;;;;10.60;2.55;;;11.10;53.70;;;;;;5015102;28;20072;-79
2021/05/11 05:14:08;;;;;;;5.70;2.85;;;11.00;53.50;;;;;;5015096;28;20029;-78
2021/05/11 05:16:35;;;;;;;3.97;2.28;;;11.00;53.60;;;;;;4998737;28;20037;-77
2021/05/11 05:19:06;;;;;;;5.88;3.35;;;11.00;53.60;;;;;;5014902;28;20033;-77
2021/05/11 05:21:32;;;;;;;11.27;3.45;;;11.00;53.70;;;;;;5014769;28;20380;-78
2021/05/11 05:24:19;;;;;;;6.22;3.42;;;11.10;53.80;;;;;;5011507;28;20531;-79
2021/05/11 05:26:51;;;;;;;9.15;2.08;;;11.10;53.80;;;;;;5014256;28;20095;-79
2021/05/11 05:29:17;;;;;;;8.90;3.35;;;11.20;54.20;;;;;;5044744;28;20123;-79
2021/05/11 05:31:43;;;;;;;5.45;2.88;;;11.30;54.50;;;;;;5031128;28;20029;-79
2021/05/11 05:34:09;;;;;;;6.03;2.17;;;11.40;54.70;;;;;;5048868;28;20238;-79
2021/05/11 05:36:36;;;;;;;5.18;2.92;;;11.40;54.70;;;;;;5048737;28;20230;-80
2021/05/11 05:39:03;;;;;;;6.13;3.08;;;11.60;55.20;;;;;;5014299;28;20491;-79
2021/05/11 05:41:30;;;;;;;6.18;3.13;;;11.60;55.20;;;;;;5014771;28;20033;-79
2021/05/11 05:43:58;;;;;;;11.25;3.38;;;11.80;55.70;;;;;;5048908;28;20025;-83
2021/05/11 05:46:24;;;;;;;9.95;3.42;;;11.90;55.80;;;;;;5012953;28;20392;-80
2021/05/11 05:48:51;;;;;;;10.52;2.42;;;12.10;56.10;;;;;;5030821;28;20387;-78
2021/05/11 05:51:19;;;;;;;8.05;2.97;;;12.30;56.30;;;;;;5030607;28;20059;-77
2021/05/11 05:53:46;;;;;;;8.20;3.45;;;12.50;56.50;;;;;;5014549;28;20475;-79
2021/05/11 05:56:15;;;;;;;7.85;3.17;;;12.60;56.60;;;;;;5014473;28;20508;-78
2021/05/11 05:58:42;;;;;;;5.40;3.08;;;12.70;56.60;;;;;;5030880;28;20036;-81
2021/05/11 06:01:09;;;;;;;11.43;3.20;;;12.80;56.80;;;;;;5014968;28;20395;-78
2021/05/11 06:06:07;;;;;;;11.85;3.70;;;12.90;56.90;;;;;;5029837;28;20029;-77
2021/05/11 06:08:37;;;;;;;10.18;3.30;;;13.00;57.60;;;;;;5010301;28;20104;-78
2021/05/11 06:19:06;;;;;;;8.90;3.15;;;13.30;59.00;;;;;;5020278;28;20271;-79
2021/05/11 06:21:32;;;;;;;8.55;3.40;;;13.40;59.30;;;;;;5009852;28;20327;-77
2021/05/11 06:23:58;;;;;;;10.35;3.63;;;13.50;59.50;;;;;;5025988;28;20028;-79
2021/05/11 06:26:30;;;;;;;9.00;2.47;;;13.60;59.70;;;;;;5013687;28;20147;-78
2021/05/11 06:28:59;;;;;;;8.60;3.70;;;13.70;59.90;;;;;;5015838;28;20037;-79
2021/05/11 06:31:25;;;;;;;9.05;2.95;;;13.80;59.90;;;;;;5027656;28;20048;-80
2021/05/11 06:33:51;;;;;;;7.72;2.88;;;14.00;60.40;;;;;;5024719;28;20037;-77
2021/05/11 06:36:17;;;;;;;10.05;3.67;;;14.20;60.70;;;;;;5029192;28;20550;-77
2021/05/11 06:38:43;;;;;;;7.40;2.60;;;14.40;60.70;;;;;;5029261;28;20036;-77
2021/05/11 06:41:10;;;;;;;8.48;2.97;;;14.60;60.80;;;;;;5046509;28;20033;-78
2021/05/11 06:43:37;;;;;;;7.78;3.13;;;14.80;60.80;;;;;;5047209;28;20536;-77
2021/05/11 06:53:55;;;;;;;6.60;2.75;;;15.70;61.00;;;;;;5032061;28;20477;-79
2021/05/11 06:56:22;;;;;;;7.57;3.28;;;16.00;61.40;;;;;;5010686;28;20496;-78
2021/05/11 06:58:48;;;;;;;9.93;2.97;;;16.30;61.50;;;;;;5009665;28;20516;-77
2021/05/11 07:01:18;;;;;;;8.20;2.85;;;16.50;61.40;;;;;;5009241;28;20431;-77
2021/05/11 07:03:44;;;;;;;7.00;2.85;;;16.80;62.10;;;;;;5025868;28;20033;-78
2021/05/11 07:06:12;;;;;;;8.38;2.63;;;17.00;61.30;;;;;;5009704;28;20064;-77
2021/05/11 07:08:58;;;;;;;6.07;2.83;;;17.20;61.30;;;;;;5009536;28;20037;-78
2021/05/11 07:14:02;;;;;;;6.53;2.47;;;17.60;61.00;;;;;;5043864;28;20036;-76
2021/05/11 07:16:28;;;;;;;4.97;2.22;;;17.80;61.00;;;;;;5028899;28;20029;-78
2021/05/11 07:18:54;;;;;;;8.35;2.30;;;18.00;61.00;;;;;;5046793;28;20029;-79
2021/05/11 07:21:20;;;;;;;8.25;2.40;;;18.40;61.60;;;;;;5028602;28;20132;-79
2021/05/11 07:23:46;;;;;;;7.75;3.15;;;18.70;61.40;;;;;;5028931;28;20112;-78
2021/05/11 07:26:24;;;;;;;7.18;2.65;;;18.80;60.80;;;;;;5029153;28;20485;-77
2021/05/11 07:29:13;;;;;;;4.13;2.05;;;18.90;60.50;;;;;;5028930;28;20033;-78
2021/05/11 07:31:39;;;;;;;5.45;1.95;;;18.90;60.10;;;;;;5029048;28;20120;-78
2021/05/11 07:34:07;;;;;;;5.53;2.38;;;18.80;59.90;;;;;;5028459;28;20033;-78
2021/05/11 07:36:33;;;;;;;5.85;2.20;;;18.80;59.80;;;;;;5028266;28;20029;-78
2021/05/11 07:39:00;;;;;;;3.67;2.15;;;18.70;59.60;;;;;;5046664;28;20040;-78
2021/05/11 07:41:26;;;;;;;4.20;2.08;;;18.70;59.60;;;;;;5028372;28;20029;-80
2021/05/11 07:43:58;;;;;;;5.95;2.42;;;18.70;59.60;;;;;;5031244;28;20029;-77
2021/05/11 07:46:39;;;;;;;3.35;2.10;;;18.80;59.80;;;;;;5018968;28;20054;-78
2021/05/11 08:02:42;;;;;;;2.53;1.58;;;18.80;58.90;;;;;;5004435;28;19909;-77
2021/05/11 08:15:44;;;;;;;2.25;1.40;;;18.30;57.90;;;;;;4986158;28;20026;-77
2021/05/11 08:28:23;;;;;;;3.35;2.28;;;17.60;57.30;;;;;;4986825;28;20038;-76
2021/05/11 08:30:50;;;;;;;3.88;2.10;;;17.50;57.50;;;;;;4985119;28;20101;-78
2021/05/11 08:33:19;;;;;;;5.35;2.60;;;17.40;57.90;;;;;;4984867;28;20031;-80
2021/05/11 08:35:48;;;;;;;4.35;2.28;;;17.40;58.20;;;;;;4985813;28;20034;-79
2021/05/11 08:38:14;;;;;;;4.07;1.95;;;17.50;58.50;;;;;;4986998;28;20036;-79
2021/05/11 08:40:40;;;;;;;3.60;1.67;;;17.50;58.50;;;;;;4986956;28;20125;-78
2021/05/11 08:43:28;;;;;;;7.88;2.72;;;17.60;58.70;;;;;;5017465;28;20030;-78
2021/05/11 08:45:55;;;;;;;3.92;1.88;;;17.80;58.70;;;;;;4989125;28;20034;-79
2021/05/11 08:48:23;;;;;;;3.40;2.00;;;17.90;58.40;;;;;;5025390;28;20115;-79
2021/05/11 08:50:56;;;;;;;3.90;2.15;;;17.90;58.30;;;;;;5026195;28;20034;-79
2021/05/11 08:53:51;;;;;;;3.22;1.88;;;17.90;58.20;;;;;;5036387;28;20152;-78
2021/05/11 09:04:45;;;;;;;3.35;1.60;;;18.80;57.90;;;;;;5027588;28;20064;-79
2021/05/11 09:24:42;;;;;;;3.53;1.70;;;19.90;57.40;;;;;;5030847;28;20035;-79
2021/05/11 10:46:57;;;;;;;2.90;1.58;;;22.50;57.70;;;;;;5012760;28;20057;-78
2021/05/11 10:49:42;;;;;;;2.90;1.67;;;22.70;57.60;;;;;;5013873;28;20029;-78
2021/05/11 10:52:12;;;;;;;4.22;1.50;;;22.90;57.60;;;;;;5026214;28;20080;-78
2021/05/11 10:54:49;;;;;;;3.80;1.77;;;23.10;57.80;;;;;;5027151;28;20029;-79
2021/05/11 10:57:42;;;;;;;1.95;1.40;;;23.20;57.50;;;;;;5010823;28;20426;-78
2021/05/11 11:00:23;;;;;;;3.65;1.88;;;23.20;57.20;;;;;;5009373;28;20120;-78
2021/05/11 11:03:20;;;;;;;3.70;2.30;;;23.20;57.10;;;;;;5029048;28;20044;-78
2021/05/11 11:05:56;;;;;;;4.90;1.65;;;23.20;57.20;;;;;;5028969;28;20029;-78
2021/05/11 11:08:36;;;;;;;7.20;2.53;;;23.10;57.10;;;;;;5029025;28;20041;-78
2021/05/11 11:11:13;;;;;;;3.53;2.38;;;23.00;57.00;;;;;;5046397;28;20036;-79
2021/05/11 11:13:45;;;;;;;4.97;2.30;;;22.90;56.90;;;;;;5028393;28;20487;-78
2021/05/11 11:16:12;;;;;;;5.85;2.20;;;22.90;57.00;;;;;;5046851;28;20039;-78
2021/05/11 11:18:39;;;;;;;3.40;2.25;;;23.00;57.20;;;;;;5029517;28;20075;-78
2021/05/11 11:23:43;;;;;;;4.25;2.58;;;23.40;57.30;;;;;;5028977;28;20436;-79
2021/05/11 11:26:13;;;;;;;5.03;2.65;;;23.50;57.10;;;;;;5028624;28;20103;-79
2021/05/11 11:28:39;;;;;;;6.85;2.90;;;23.70;57.20;;;;;;5028802;28;20484;-80
2021/05/11 11:31:22;;;;;;;4.32;2.55;;;23.70;57.10;;;;;;5028880;28;20518;-80
2021/05/11 11:33:48;;;;;;;7.60;3.10;;;23.80;57.00;;;;;;5045869;28;20418;-79
2021/05/11 11:36:32;;;;;;;7.65;3.33;;;23.90;57.50;;;;;;5046183;28;20032;-79
2021/05/11 11:39:00;;;;;;;4.50;2.40;;;23.90;57.00;;;;;;5028598;28;20419;-79
2021/05/11 11:41:28;;;;;;;5.20;2.70;;;24.00;57.10;;;;;;5046906;28;20037;-80
2021/05/11 11:43:54;;;;;;;5.55;3.20;;;24.00;56.90;;;;;;5045770;28;20032;-80
2021/05/11 11:46:25;;;;;;;5.95;2.90;;;24.00;56.80;;;;;;5024550;28;20544;-80
2021/05/11 11:49:04;;;;;;;4.50;2.92;;;24.00;56.90;;;;;;5008513;28;20045;-80
2021/05/11 11:51:33;;;;;;;7.65;3.05;;;24.10;57.10;;;;;;5026483;28;20124;-79
2021/05/11 11:54:15;;;;;;;5.43;2.72;;;24.30;57.30;;;;;;5024396;28;20041;-80
2021/05/11 11:59:25;;;;;;;7.75;3.45;;;24.70;57.40;;;;;;5025156;28;20045;-79
2021/05/11 12:02:00;;;;;;;7.07;3.15;;;24.90;57.50;;;;;;5008707;28;20025;-80
2021/05/11 12:04:27;;;;;;;7.75;3.10;;;25.00;57.20;;;;;;5026358;28;20037;-79
2021/05/11 12:06:53;;;;;;;5.55;2.90;;;25.00;57.20;;;;;;5024886;28;20040;-80
2021/05/11 12:09:22;;;;;;;4.57;3.22;;;25.10;57.10;;;;;;5024694;28;20098;-81
2021/05/11 12:11:49;;;;;;;4.05;2.50;;;25.20;57.00;;;;;;5008545;28;20103;-81
2021/05/11 12:14:16;;;;;;;4.28;2.47;;;25.40;57.00;;;;;;5005036;28;20018;-81
2021/05/11 12:16:44;;;;;;;4.88;2.92;;;25.50;56.70;;;;;;4988360;28;20041;-81
2021/05/11 12:19:16;;;;;;;6.03;3.00;;;25.50;56.50;;;;;;5018601;28;20033;-80
2021/05/11 12:22:06;;;;;;;5.55;2.55;;;25.60;56.50;;;;;;5008237;28;20026;-81
2021/05/11 12:24:37;;;;;;;6.35;3.00;;;25.60;56.40;;;;;;5005131;28;20030;-80
2021/05/11 12:27:14;;;;;;;4.35;2.67;;;25.70;56.30;;;;;;5005162;28;20041;-79
2021/05/11 12:30:07;;;;;;;3.88;2.30;;;25.80;56.20;;;;;;5019692;28;20030;-81
2021/05/11 12:32:34;;;;;;;6.88;3.00;;;26.00;56.20;;;;;;5025294;28;20030;-79
2021/05/11 12:35:10;;;;;;;5.20;2.67;;;26.10;56.00;;;;;;5008689;28;20273;-80
2021/05/11 12:37:59;;;;;;;4.80;2.47;;;26.30;55.70;;;;;;5008479;28;20428;-80
2021/05/11 12:40:40;;;;;;;4.90;2.50;;;26.40;55.60;;;;;;5008162;28;20048;-80
2021/05/11 12:43:07;;;;;;;4.05;2.63;;;26.50;55.50;;;;;;5025007;28;20123;-80
2021/05/11 12:45:48;;;;;;;4.03;2.35;;;26.50;55.30;;;;;;5008670;28;20117;-80
2021/05/11 12:48:14;;;;;;;3.47;2.35;;;26.50;55.30;;;;;;5007475;28;20574;-80
2021/05/11 12:50:42;;;;;;;3.90;2.50;;;26.50;55.50;;;;;;5008186;28;20084;-80
2021/05/11 13:25:59;;;;;;;3.17;1.75;;;27.20;54.80;;;;;;5029895;28;20117;-79
2021/05/11 13:28:32;;;;;;;3.15;2.03;;;27.40;54.60;;;;;;5029442;28;20021;-80
2021/05/11 13:31:04;;;;;;;3.80;1.87;;;27.60;54.30;;;;;;5029240;28;20653;-78
2021/05/11 13:33:36;;;;;;;3.70;1.95;;;27.80;54.20;;;;;;5010312;28;20022;-79
2021/05/11 13:36:02;;;;;;;2.72;1.55;;;27.90;54.10;;;;;;4992434;28;20030;-78
2021/05/11 13:38:28;;;;;;;3.28;1.92;;;28.00;54.10;;;;;;4995436;28;20038;-77
2021/05/11 13:40:54;;;;;;;2.88;1.55;;;28.20;53.90;;;;;;4991807;28;20480;-78
2021/05/11 13:43:21;;;;;;;3.30;1.60;;;28.30;53.70;;;;;;4996572;28;20103;-78
2021/05/11 13:45:47;;;;;;;2.47;1.48;;;28.40;53.50;;;;;;5024375;28;20084;-78
2021/05/11 13:48:25;;;;;;;3.10;2.00;;;28.30;53.40;;;;;;5015683;28;20029;-79
2021/05/11 13:53:23;;;;;;;2.28;1.27;;;28.40;53.50;;;;;;5039222;28;20029;-78
2021/05/11 14:03:45;;;;;;;3.38;2.00;;;28.50;53.40;;;;;;5027955;28;20056;-80
2021/05/11 14:06:11;;;;;;;2.17;1.52;;;28.60;53.50;;;;;;5028253;28;20505;-80
2021/05/11 14:08:37;;;;;;;3.10;1.50;;;28.70;53.60;;;;;;5026257;28;20072;-80
2021/05/11 14:11:03;;;;;;;3.10;1.60;;;28.80;53.70;;;;;;5027350;28;20303;-79
2021/05/11 14:13:30;;;;;;;2.85;1.67;;;28.90;53.60;;;;;;5028249;28;20061;-80
2021/05/11 14:15:56;;;;;;;3.53;1.50;;;29.00;53.50;;;;;;5027191;28;20037;-79
2021/05/11 14:18:22;;;;;;;2.95;1.38;;;29.00;53.50;;;;;;5010282;28;20499;-80
2021/05/11 14:20:48;;;;;;;2.88;1.50;;;29.10;53.50;;;;;;4993676;28;20299;-78
2021/05/11 14:23:14;;;;;;;1.83;1.30;;;29.20;53.40;;;;;;5012852;28;20040;-78
2021/05/11 14:25:40;;;;;;;2.35;1.60;;;29.30;53.30;;;;;;5013219;28;20033;-78
2021/05/11 14:28:06;;;;;;;2.70;1.40;;;29.30;53.10;;;;;;5009998;28;20552;-79
2021/05/11 14:30:32;;;;;;;2.40;1.55;;;29.40;53.90;;;;;;4994194;28;20044;-79
2021/05/11 14:32:58;;;;;;;3.00;1.48;;;29.50;53.20;;;;;;5012698;28;20029;-79
2021/05/11 14:35:24;;;;;;;2.42;1.20;;;29.60;53.20;;;;;;5009992;28;20044;-79
2021/05/11 14:37:50;;;;;;;2.80;1.55;;;29.80;53.50;;;;;;4995165;28;20504;-78
2021/05/11 14:40:17;;;;;;;2.25;1.33;;;30.00;53.40;;;;;;5029658;28;20029;-79
2021/05/11 14:42:43;;;;;;;2.33;1.23;;;30.20;53.10;;;;;;5029877;28;20103;-79
2021/05/11 14:45:11;;;;;;;1.92;1.10;;;30.50;52.90;;;;;;5013112;28;20456;-80
2021/05/11 14:47:44;;;;;;;2.40;1.17;;;30.60;52.50;;;;;;5009659;28;20159;-80
2021/05/11 14:50:13;;;;;;;2.22;1.13;;;30.60;52.30;;;;;;5009735;28;20033;-79
2021/05/11 14:52:39;;;;;;;2.28;1.33;;;30.50;52.10;;;;;;5009563;28;20428;-78
2021/05/11 14:55:06;;;;;;;3.17;1.60;;;30.40;52.30;;;;;;5009627;28;20032;-78
2021/05/11 14:57:32;;;;;;;1.73;1.10;;;30.30;52.30;;;;;;5009739;28;20144;-79
2021/05/11 14:59:58;;;;;;;2.60;1.45;;;30.20;52.40;;;;;;5025941;28;20022;-80
2021/05/11 15:02:24;;;;;;;2.83;1.38;;;30.10;52.50;;;;;;5009626;28;20034;-80
2021/05/11 15:04:51;;;;;;;3.00;1.23;;;30.00;52.40;;;;;;5009876;28;20426;-80
2021/05/11 15:07:18;;;;;;;1.70;1.30;;;29.90;52.20;;;;;;5009844;28;20025;-80
2021/05/11 15:09:44;;;;;;;2.30;1.30;;;29.80;52.10;;;;;;5006147;28;20069;-80
2021/05/11 15:12:10;;;;;;;1.92;1.20;;;29.60;51.90;;;;;;5006198;28;20064;-80
2021/05/11 15:14:36;;;;;;;2.33;1.13;;;29.40;51.80;;;;;;5008619;28;20025;-80
2021/05/11 15:19:50;;;;;;;2.15;0.93;;;29.10;52.00;;;;;;5025862;28;20029;-79
2021/05/11 15:22:18;;;;;;;2.53;1.40;;;28.90;52.10;;;;;;5009194;28;20447;-80
2021/05/11 15:24:44;;;;;;;1.30;1.10;;;28.70;52.10;;;;;;4989143;28;20358;-79
2021/05/11 15:27:12;;;;;;;1.98;1.13;;;28.60;52.30;;;;;;5005559;28;20542;-81
2021/05/11 15:29:39;;;;;;;2.13;1.13;;;28.40;52.40;;;;;;5008338;28;20112;-78
2021/05/11 15:32:44;;;;;;;3.00;1.55;;;28.30;52.60;;;;;;5008839;28;20476;-79
2021/05/11 15:35:34;;;;;;;2.22;1.45;;;28.20;52.70;;;;;;5009146;28;20507;-80
2021/05/11 15:38:02;;;;;;;1.40;1.02;;;28.20;52.70;;;;;;5008841;28;20130;-78
2021/05/11 15:40:30;;;;;;;1.98;1.20;;;28.00;52.60;;;;;;5008756;28;20025;-79
2021/05/11 15:42:57;;;;;;;1.67;1.50;;;27.90;52.70;;;;;;5021121;28;20029;-77
2021/05/11 15:45:24;;;;;;;1.80;1.00;;;27.70;52.90;;;;;;5005599;28;20029;-77
2021/05/11 15:47:53;;;;;;;3.65;1.52;;;27.40;53.00;;;;;;4988167;28;20065;-77
2021/05/11 15:50:29;;;;;;;1.90;1.25;;;27.20;53.30;;;;;;4989261;28;20559;-76
2021/05/11 15:53:02;;;;;;;1.40;1.10;;;26.90;53.50;;;;;;4988744;28;20037;-76
2021/05/11 15:55:36;;;;;;;2.75;1.33;;;26.60;53.70;;;;;;5006465;28;20773;-76
2021/05/11 15:58:02;;;;;;;2.40;1.40;;;26.30;53.90;;;;;;4989033;28;20121;-77
2021/05/11 16:00:29;;;;;;;2.10;1.40;;;26.10;54.30;;;;;;5005416;28;20026;-79
2021/05/11 16:02:55;;;;;;;1.80;1.08;;;25.80;54.60;;;;;;5006269;28;20124;-77
2021/05/11 16:05:22;;;;;;;2.28;1.30;;;25.60;54.90;;;;;;5005288;28;20101;-77
2021/05/11 16:07:49;;;;;;;2.00;1.00;;;25.40;55.20;;;;;;4988556;28;20069;-79
2021/05/11 16:10:16;;;;;;;3.63;1.50;;;25.20;55.50;;;;;;4988774;28;20359;-76
2021/05/11 16:12:42;;;;;;;2.28;1.40;;;25.00;55.70;;;;;;5004829;28;20030;-78
2021/05/11 16:15:12;;;;;;;2.15;1.45;;;24.80;55.70;;;;;;4989089;28;20053;-77
2021/05/11 16:17:39;;;;;;;1.67;1.15;;;24.70;56.50;;;;;;4988121;28;20046;-78
2021/05/11 16:20:07;;;;;;;1.83;1.10;;;24.50;55.80;;;;;;4989491;28;20076;-77
2021/05/11 16:22:33;;;;;;;1.70;1.00;;;24.40;55.90;;;;;;5005816;28;20057;-78
2021/05/11 16:24:59;;;;;;;1.45;1.10;;;24.20;55.80;;;;;;5004869;28;20034;-80
2021/05/11 16:27:26;;;;;;;2.25;1.40;;;24.10;55.90;;;;;;5004855;28;20026;-77
2021/05/11 16:29:52;;;;;;;3.15;1.15;;;24.10;56.20;;;;;;5017848;28;20504;-77
2021/05/11 16:32:18;;;;;;;1.20;1.00;;;23.80;55.90;;;;;;5024857;28;20034;-79
2021/05/11 16:34:44;;;;;;;1.90;1.20;;;23.70;56.00;;;;;;5028784;28;20029;-76
2021/05/11 16:37:11;;;;;;;1.88;1.25;;;23.60;56.00;;;;;;5030276;28;20480;-79
2021/05/11 16:39:37;;;;;;;1.48;1.10;;;23.50;56.10;;;;;;5028699;28;20064;-78
2021/05/11 16:42:05;;;;;;;2.67;1.67;;;23.40;56.10;;;;;;5029545;28;20033;-80
2021/05/11 16:44:31;;;;;;;3.20;1.05;;;23.20;55.80;;;;;;5011885;28;20373;-80
2021/05/11 16:46:57;;;;;;;2.80;1.45;;;23.10;55.80;;;;;;5011751;28;20045;-75
2021/05/11 16:49:24;;;;;;;4.70;1.33;;;23.00;55.90;;;;;;5028303;28;20477;-76
2021/05/11 16:51:50;;;;;;;1.52;1.05;;;22.80;55.60;;;;;;5012694;28;20033;-76
2021/05/11 16:54:16;;;;;;;2.83;1.50;;;22.70;55.50;;;;;;5028323;28;20480;-76
2021/05/11 16:56:42;;;;;;;3.42;1.70;;;22.50;55.30;;;;;;5030335;28;20037;-75
2021/05/11 16:59:08;;;;;;;4.28;1.77;;;22.40;55.20;;;;;;5019048;28;20080;-75
2021/05/11 17:01:35;;;;;;;5.68;1.90;;;22.20;55.00;;;;;;5009768;28;20041;-76
2021/05/11 17:04:02;;;;;;;2.60;1.30;;;22.10;55.00;;;;;;5023358;28;20262;-75
2021/05/11 17:06:30;;;;;;;4.65;1.65;;;22.00;55.00;;;;;;5028033;28;20083;-77
2021/05/11 17:08:57;;;;;;;5.82;1.95;;;21.90;54.90;;;;;;5028491;28;20025;-77
2021/05/11 17:11:23;;;;;;;3.38;1.88;;;21.80;54.80;;;;;;5011724;28;20083;-76
2021/05/11 17:13:49;;;;;;;4.68;1.63;;;21.70;54.70;;;;;;5011498;28;20044;-78
2021/05/11 17:16:16;;;;;;;2.88;1.52;;;21.60;54.70;;;;;;5009527;28;20030;-78
2021/05/11 17:18:42;;;;;;;3.33;1.40;;;21.60;54.90;;;;;;5010369;28;20072;-78